Time;durP1;ratioP1;P1;durP2;ratioP2;P2;SDS_P1;SDS_P2;PMS_P1;PMS_P2;Temp;Humidity;BMP_temperature;BMP_pressure;BME280_temperature;BME280_humidity;BME280_pressure;Samples;Min_cycle;Max_cycle;Signal;HPM_P1;HPM_P2
2021/01/14 00:01:14;;;;;;;1.42;1.30;;;-0.10;99.90;;;;;;4840189;28;20425;-80
2021/01/14 00:03:40;;;;;;;2.17;1.40;;;-0.20;99.90;;;;;;4861229;28;20420;-79
2021/01/14 00:06:07;;;;;;;2.10;1.30;;;-0.20;99.90;;;;;;4859100;28;20463;-76
2021/01/14 00:08:33;;;;;;;2.03;1.42;;;-0.30;99.90;;;;;;4843101;28;20421;-81
2021/01/14 00:10:58;;;;;;;1.50;1.40;;;-0.40;99.90;;;;;;4843645;29;20424;-80
2021/01/14 00:13:24;;;;;;;1.10;1.10;;;-0.50;99.90;;;;;;4859887;28;20404;-77
2021/01/14 00:15:50;;;;;;;1.40;1.30;;;-0.50;99.90;;;;;;4822534;29;20467;-76
2021/01/14 00:18:15;;;;;;;1.40;1.30;;;-0.60;99.90;;;;;;4837825;28;20416;-77
2021/01/14 00:20:41;;;;;;;1.10;1.10;;;-0.60;99.90;;;;;;4862577;28;20880;-76
2021/01/14 00:23:07;;;;;;;1.50;1.40;;;-0.70;99.90;;;;;;4847811;28;20439;-80
2021/01/14 00:25:32;;;;;;;1.13;1.10;;;-0.70;99.90;;;;;;4849640;28;20409;-80
2021/01/14 00:27:58;;;;;;;1.30;1.20;;;-0.70;99.90;;;;;;4860401;28;20443;-81
2021/01/14 00:30:26;;;;;;;1.77;1.40;;;-0.70;99.90;;;;;;4846023;28;20423;-77
2021/01/14 00:32:52;;;;;;;1.50;1.40;;;-0.60;99.90;;;;;;4853245;28;20411;-78
2021/01/14 00:35:18;;;;;;;1.20;1.17;;;-0.70;99.90;;;;;;4863344;28;20412;-76
2021/01/14 00:37:50;;;;;;;1.65;1.48;;;-0.70;99.90;;;;;;4848772;28;20408;-76
2021/01/14 00:40:27;;;;;;;1.27;1.20;;;-0.70;99.90;;;;;;4836420;28;20420;-77
2021/01/14 00:42:58;;;;;;;1.80;1.70;;;-0.80;99.90;;;;;;4855668;29;20409;-77
2021/01/14 00:45:23;;;;;;;1.52;1.23;;;-0.80;99.90;;;;;;4846320;28;21202;-78
2021/01/14 00:47:49;;;;;;;1.50;1.40;;;-0.80;99.90;;;;;;4861163;29;20416;-76
2021/01/14 00:50:15;;;;;;;1.50;1.40;;;-0.80;99.90;;;;;;4844373;28;20413;-80
2021/01/14 00:52:41;;;;;;;1.45;1.38;;;-0.80;99.90;;;;;;4893474;28;20516;-76
2021/01/14 00:55:08;;;;;;;1.80;1.40;;;-0.70;99.90;;;;;;4855096;28;20515;-76
2021/01/14 00:57:37;;;;;;;1.83;1.67;;;-0.80;99.90;;;;;;4859558;28;20414;-76
2021/01/14 01:00:08;;;;;;;1.50;1.40;;;-0.80;99.90;;;;;;4854525;28;20451;-80
2021/01/14 01:02:34;;;;;;;3.15;1.50;;;-0.80;99.90;;;;;;4856815;28;20440;-79
2021/01/14 01:05:00;;;;;;;1.80;1.70;;;-0.80;99.90;;;;;;4907694;28;21098;-79
2021/01/14 01:07:26;;;;;;;2.50;2.30;;;-0.80;99.90;;;;;;4859572;28;20417;-76
2021/01/14 01:09:52;;;;;;;1.90;1.80;;;-0.80;99.90;;;;;;4843467;28;20921;-77
2021/01/14 01:12:18;;;;;;;2.80;1.80;;;-0.80;99.90;;;;;;4877733;28;20507;-80
2021/01/14 01:14:43;;;;;;;1.77;1.67;;;-0.80;99.90;;;;;;4849388;29;21039;-78
2021/01/14 01:17:10;;;;;;;2.20;1.80;;;-0.80;99.90;;;;;;4847469;28;20432;-79
2021/01/14 01:19:35;;;;;;;1.83;1.70;;;-0.60;99.90;;;;;;4866404;28;20409;-76
2021/01/14 01:22:01;;;;;;;1.90;1.50;;;-0.70;99.90;;;;;;4837923;28;20481;-79
2021/01/14 01:24:27;;;;;;;1.60;1.50;;;-0.70;99.90;;;;;;4850249;28;20432;-77
2021/01/14 01:26:53;;;;;;;1.70;1.60;;;-0.70;99.90;;;;;;4859906;29;20424;-76
2021/01/14 01:29:19;;;;;;;2.17;1.88;;;-0.70;99.90;;;;;;4857460;28;20436;-76
2021/01/14 01:31:45;;;;;;;2.00;1.88;;;-0.60;99.90;;;;;;4846435;29;20441;-76
2021/01/14 01:34:13;;;;;;;1.77;1.67;;;-0.70;99.90;;;;;;4844197;29;20469;-76
2021/01/14 01:36:38;;;;;;;1.60;1.50;;;-0.70;99.90;;;;;;4896840;28;20494;-77
2021/01/14 01:39:05;;;;;;;2.03;1.90;;;-0.60;99.90;;;;;;4906985;28;20412;-81
2021/01/14 01:41:30;;;;;;;3.50;1.70;;;-0.60;99.90;;;;;;4895036;28;20417;-76
2021/01/14 01:43:56;;;;;;;1.80;1.70;;;-0.60;99.90;;;;;;4854483;29;20397;-79
2021/01/14 01:46:27;;;;;;;1.97;1.73;;;-0.60;99.90;;;;;;4844213;28;21017;-77
2021/01/14 01:48:53;;;;;;;2.05;1.50;;;-0.60;99.90;;;;;;4847285;29;20429;-79
2021/01/14 01:51:19;;;;;;;2.10;1.90;;;-0.60;99.90;;;;;;4937890;28;20492;-77
2021/01/14 01:53:45;;;;;;;1.60;1.50;;;-0.50;99.90;;;;;;4897143;29;20492;-76
2021/01/14 01:56:12;;;;;;;2.07;1.80;;;-0.70;99.90;;;;;;4831043;28;20496;-76
2021/01/14 01:58:39;;;;;;;2.08;1.88;;;-0.60;99.90;;;;;;4842444;29;20411;-76
2021/01/14 02:01:06;;;;;;;2.95;1.80;;;-0.60;99.90;;;;;;4828316;28;20541;-75
2021/01/14 02:03:31;;;;;;;1.70;1.60;;;-0.60;99.90;;;;;;4857541;28;21436;-76
2021/01/14 02:05:57;;;;;;;3.10;1.93;;;-0.60;99.90;;;;;;4854920;29;20488;-75
2021/01/14 02:08:28;;;;;;;1.67;1.58;;;-0.50;99.90;;;;;;4838252;28;20547;-76
2021/01/14 02:10:58;;;;;;;1.70;1.60;;;-0.50;99.90;;;;;;4936370;28;20780;-75
2021/01/14 02:13:40;;;;;;;3.00;1.90;;;-0.50;99.90;;;;;;4950199;28;20429;-76
2021/01/14 02:16:06;;;;;;;1.65;1.55;;;-0.50;99.90;;;;;;4917487;28;20460;-75
2021/01/14 02:18:32;;;;;;;1.87;1.63;;;-0.60;99.90;;;;;;4845136;28;20416;-76
2021/01/14 02:21:03;;;;;;;1.47;1.37;;;-0.60;99.90;;;;;;4830244;28;20417;-76
2021/01/14 02:24:03;;;;;;;1.50;1.40;;;-0.50;99.90;;;;;;4837839;29;20422;-76
2021/01/14 02:26:29;;;;;;;1.50;1.40;;;-0.50;99.90;;;;;;4913670;28;20990;-76
2021/01/14 02:28:55;;;;;;;1.67;1.57;;;-0.50;99.90;;;;;;4921123;28;20458;-78
2021/01/14 02:31:22;;;;;;;1.97;1.67;;;-0.50;99.90;;;;;;4868846;28;20451;-76
2021/01/14 02:33:51;;;;;;;2.58;1.50;;;-0.50;99.90;;;;;;4839501;28;20500;-75
2021/01/14 02:36:17;;;;;;;2.03;1.70;;;-0.50;99.90;;;;;;4851193;28;20489;-76
2021/01/14 02:38:42;;;;;;;1.67;1.50;;;-0.50;99.90;;;;;;4845108;28;20422;-75
2021/01/14 02:41:08;;;;;;;1.63;1.52;;;-0.50;99.90;;;;;;4924610;29;20489;-76
2021/01/14 02:43:35;;;;;;;2.60;1.70;;;-0.50;99.90;;;;;;4889741;28;20417;-75
2021/01/14 02:46:01;;;;;;;1.95;1.70;;;-0.50;99.90;;;;;;4868196;28;20524;-75
2021/01/14 02:48:34;;;;;;;1.65;1.55;;;-0.50;99.90;;;;;;4847769;28;20500;-75
2021/01/14 02:51:01;;;;;;;3.55;1.60;;;-0.50;99.90;;;;;;4837851;28;20492;-76
2021/01/14 02:53:27;;;;;;;1.80;1.50;;;-0.40;99.90;;;;;;4863746;29;20415;-75
2021/01/14 02:55:53;;;;;;;1.63;1.50;;;-0.50;99.90;;;;;;4821352;29;20417;-76
2021/01/14 02:58:18;;;;;;;1.77;1.50;;;-0.30;99.90;;;;;;4849187;28;20416;-75
2021/01/14 03:00:44;;;;;;;1.67;1.53;;;-0.30;99.90;;;;;;4854493;28;20479;-75
2021/01/14 03:03:10;;;;;;;1.45;1.35;;;-0.40;99.90;;;;;;4886122;29;20888;-77
2021/01/14 03:05:35;;;;;;;1.97;1.53;;;-0.40;99.90;;;;;;4836884;28;20416;-75
2021/01/14 03:08:01;;;;;;;1.70;1.60;;;-0.40;99.90;;;;;;4833823;29;20421;-76
2021/01/14 03:10:27;;;;;;;2.50;1.60;;;-0.40;99.90;;;;;;4851662;28;20456;-75
2021/01/14 03:12:54;;;;;;;1.60;1.45;;;-0.40;99.90;;;;;;4837340;28;20420;-76
2021/01/14 03:15:20;;;;;;;1.42;1.33;;;-0.30;99.90;;;;;;4835568;28;20425;-75
2021/01/14 03:17:46;;;;;;;1.50;1.40;;;-0.30;99.90;;;;;;4852839;28;20421;-76
2021/01/14 03:20:12;;;;;;;1.65;1.38;;;-0.30;99.90;;;;;;4845568;28;20411;-76
2021/01/14 03:22:38;;;;;;;1.63;1.52;;;-0.30;99.90;;;;;;4836785;28;20421;-79
2021/01/14 03:25:09;;;;;;;2.80;1.53;;;-0.20;99.90;;;;;;4865023;29;20445;-80
2021/01/14 03:27:39;;;;;;;1.42;1.33;;;-0.20;99.90;;;;;;4862059;28;20430;-78
2021/01/14 03:30:06;;;;;;;1.48;1.38;;;-0.20;99.90;;;;;;4897436;28;20973;-77
2021/01/14 03:32:32;;;;;;;1.50;1.40;;;-0.20;99.90;;;;;;4857891;28;20894;-79
2021/01/14 03:34:57;;;;;;;1.67;1.55;;;-0.30;99.90;;;;;;4842323;29;20413;-76
2021/01/14 03:37:23;;;;;;;1.40;1.23;;;-0.20;99.90;;;;;;4824713;28;20409;-75
2021/01/14 03:39:49;;;;;;;1.43;1.33;;;-0.20;99.90;;;;;;4826641;28;20421;-76
2021/01/14 03:42:19;;;;;;;1.40;1.30;;;-0.10;99.90;;;;;;4835611;28;20772;-81
2021/01/14 03:44:45;;;;;;;1.70;1.30;;;-0.10;99.90;;;;;;4822142;29;20403;-76
2021/01/14 03:47:10;;;;;;;1.40;1.30;;;-0.10;99.90;;;;;;4850960;29;21003;-75
2021/01/14 03:49:36;;;;;;;1.63;1.50;;;0.00;99.90;;;;;;4884642;28;20939;-78
2021/01/14 03:52:02;;;;;;;1.50;1.40;;;0.00;99.90;;;;;;4944653;28;20400;-75
2021/01/14 03:54:28;;;;;;;1.50;1.40;;;0.00;99.90;;;;;;4931287;28;20418;-74
2021/01/14 03:56:54;;;;;;;1.27;1.20;;;0.00;99.90;;;;;;4915242;28;20397;-74
2021/01/14 03:59:19;;;;;;;1.50;1.40;;;0.00;99.90;;;;;;4935070;28;20998;-80
2021/01/14 04:01:45;;;;;;;1.77;1.67;;;0.10;99.90;;;;;;4869865;28;20959;-76
2021/01/14 04:04:11;;;;;;;1.60;1.50;;;0.10;99.90;;;;;;4852794;28;20434;-76
2021/01/14 04:06:37;;;;;;;1.60;1.50;;;0.00;99.90;;;;;;4835215;28;21329;-75
2021/01/14 04:09:06;;;;;;;1.40;1.30;;;0.10;99.90;;;;;;4836528;29;21022;-75
2021/01/14 04:11:32;;;;;;;1.90;1.30;;;0.10;99.90;;;;;;4838623;29;20449;-81
2021/01/14 04:13:59;;;;;;;1.60;1.50;;;0.10;99.90;;;;;;4820795;29;20409;-76
2021/01/14 04:16:25;;;;;;;1.48;1.38;;;0.00;99.90;;;;;;4817274;29;21196;-76
2021/01/14 04:18:51;;;;;;;2.05;1.70;;;0.00;99.90;;;;;;4844344;29;20922;-79
2021/01/14 04:21:17;;;;;;;1.40;1.30;;;-0.10;99.90;;;;;;4841641;29;20413;-76
2021/01/14 04:23:43;;;;;;;1.40;1.30;;;0.00;99.90;;;;;;4837147;29;20826;-75
2021/01/14 04:26:08;;;;;;;1.40;1.30;;;-0.10;99.90;;;;;;4840426;29;20433;-75
2021/01/14 04:28:34;;;;;;;1.45;1.35;;;-0.10;99.90;;;;;;4842710;28;20408;-75
2021/01/14 04:31:00;;;;;;;1.60;1.50;;;-0.10;99.90;;;;;;4851575;29;20970;-76
2021/01/14 04:33:25;;;;;;;1.47;1.37;;;-0.20;99.90;;;;;;4860235;28;20424;-75
2021/01/14 04:35:53;;;;;;;1.70;1.60;;;-0.30;99.90;;;;;;4822128;28;20435;-75
2021/01/14 04:38:19;;;;;;;1.67;1.50;;;-0.20;99.90;;;;;;4834237;28;20436;-75
2021/01/14 04:40:45;;;;;;;1.38;1.33;;;-0.30;99.90;;;;;;4847038;28;20431;-76
2021/01/14 04:43:12;;;;;;;1.60;1.50;;;-0.30;99.90;;;;;;4824681;29;20429;-77
2021/01/14 04:45:41;;;;;;;1.40;1.30;;;-0.20;99.90;;;;;;4835432;28;20425;-75
2021/01/14 04:48:09;;;;;;;1.20;1.20;;;-0.30;99.90;;;;;;4852485;29;20421;-74
2021/01/14 04:50:35;;;;;;;1.40;1.30;;;-0.20;99.90;;;;;;4852174;28;20428;-74
2021/01/14 04:53:00;;;;;;;1.47;1.30;;;-0.30;99.90;;;;;;4835418;29;20409;-80
2021/01/14 04:55:28;;;;;;;1.75;1.60;;;-0.20;99.90;;;;;;4838900;28;20456;-73
2021/01/14 04:57:54;;;;;;;1.30;1.30;;;-0.20;99.90;;;;;;4855731;28;20428;-75
2021/01/14 05:00:23;;;;;;;1.60;1.50;;;-0.30;99.90;;;;;;4860476;28;20411;-75
2021/01/14 05:02:52;;;;;;;2.40;1.55;;;-0.30;99.90;;;;;;4859169;28;20467;-75
2021/01/14 05:05:18;;;;;;;1.65;1.55;;;-0.20;99.90;;;;;;4871263;28;20434;-76
2021/01/14 05:07:47;;;;;;;1.40;1.30;;;-0.20;99.90;;;;;;4855486;28;21029;-75
2021/01/14 05:10:13;;;;;;;1.45;1.35;;;-0.10;99.90;;;;;;4836945;28;20440;-74
2021/01/14 05:12:38;;;;;;;2.25;1.50;;;-0.20;99.90;;;;;;4841802;28;20475;-76
2021/01/14 05:15:05;;;;;;;1.70;1.60;;;-0.10;99.90;;;;;;4840078;29;20428;-78
2021/01/14 05:17:30;;;;;;;1.60;1.50;;;-0.20;99.90;;;;;;4838030;28;20437;-74
2021/01/14 05:19:56;;;;;;;1.70;1.60;;;-0.10;99.90;;;;;;4834083;28;20508;-77
2021/01/14 05:22:25;;;;;;;1.75;1.65;;;-0.20;99.90;;;;;;4862725;28;20421;-77
2021/01/14 05:25:07;;;;;;;1.55;1.45;;;-0.20;99.90;;;;;;4835822;29;20440;-75
2021/01/14 05:27:34;;;;;;;1.70;1.60;;;-0.20;99.90;;;;;;4927962;28;20443;-75
2021/01/14 05:30:03;;;;;;;1.65;1.55;;;-0.20;99.90;;;;;;4919984;28;20406;-75
2021/01/14 05:32:39;;;;;;;1.90;1.80;;;-0.10;99.90;;;;;;4856460;28;20416;-75
2021/01/14 05:35:06;;;;;;;2.17;1.52;;;-0.10;99.90;;;;;;4846183;28;20917;-75
2021/01/14 05:37:35;;;;;;;2.05;1.85;;;-0.10;99.90;;;;;;4846955;28;20413;-77
2021/01/14 05:40:03;;;;;;;2.00;1.90;;;-0.10;99.90;;;;;;4846951;28;21030;-72
2021/01/14 05:42:28;;;;;;;2.40;2.00;;;-0.10;99.90;;;;;;4933011;28;20406;-72
2021/01/14 05:44:54;;;;;;;2.20;2.00;;;-0.10;99.90;;;;;;4918049;28;20475;-74
2021/01/14 05:47:25;;;;;;;2.05;1.90;;;-0.10;99.90;;;;;;4880892;28;21121;-73
2021/01/14 05:50:00;;;;;;;2.22;2.03;;;-0.10;99.90;;;;;;4853173;28;20793;-74
2021/01/14 05:52:27;;;;;;;2.05;1.85;;;-0.10;99.90;;;;;;4873222;28;20407;-73
2021/01/14 05:54:58;;;;;;;2.22;2.03;;;-0.10;99.90;;;;;;4845093;29;20409;-74
2021/01/14 05:57:28;;;;;;;1.92;1.80;;;-0.10;99.90;;;;;;4870055;28;20416;-73
2021/01/14 05:59:54;;;;;;;1.70;1.60;;;-0.10;99.90;;;;;;4824173;28;20508;-74
2021/01/14 06:02:28;;;;;;;2.20;1.80;;;0.00;99.90;;;;;;4854357;28;21273;-73
2021/01/14 06:04:53;;;;;;;1.88;1.77;;;0.00;99.90;;;;;;4882118;28;20425;-76
2021/01/14 06:07:19;;;;;;;1.90;1.80;;;0.00;99.90;;;;;;4838958;29;20408;-72
2021/01/14 06:09:45;;;;;;;2.20;2.00;;;0.00;99.90;;;;;;4853834;28;20405;-74
2021/01/14 06:12:11;;;;;;;2.30;2.10;;;0.00;99.90;;;;;;4842051;28;20423;-73
2021/01/14 06:14:37;;;;;;;2.60;2.30;;;0.00;99.90;;;;;;4866169;28;20975;-75
2021/01/14 06:17:04;;;;;;;2.30;2.10;;;0.00;99.90;;;;;;4853387;29;20411;-74
2021/01/14 06:19:30;;;;;;;1.95;1.85;;;0.00;99.90;;;;;;4934450;28;20471;-73
2021/01/14 06:21:56;;;;;;;2.13;1.98;;;0.10;99.90;;;;;;4856646;28;20417;-75
2021/01/14 06:24:26;;;;;;;2.40;2.20;;;0.00;99.90;;;;;;4847242;29;20401;-74
2021/01/14 06:26:56;;;;;;;2.60;2.40;;;0.00;99.90;;;;;;4852300;28;20413;-74
2021/01/14 06:29:23;;;;;;;2.58;2.38;;;0.00;99.90;;;;;;4846841;29;20465;-75
2021/01/14 06:31:49;;;;;;;2.70;2.25;;;0.00;99.90;;;;;;4890931;28;20421;-73
2021/01/14 06:34:16;;;;;;;2.50;2.30;;;0.00;99.90;;;;;;4842338;29;20416;-72
2021/01/14 06:36:46;;;;;;;2.72;2.53;;;0.10;99.90;;;;;;4852686;28;20413;-72
2021/01/14 06:39:16;;;;;;;2.93;2.70;;;0.10;99.90;;;;;;4840779;28;20416;-75
2021/01/14 06:41:43;;;;;;;3.10;2.80;;;0.10;99.90;;;;;;4841370;28;20405;-73
2021/01/14 06:44:11;;;;;;;3.30;3.00;;;0.10;99.90;;;;;;4838300;28;20500;-72
2021/01/14 06:46:36;;;;;;;2.90;2.70;;;0.10;99.90;;;;;;4838187;28;20405;-72
2021/01/14 06:49:02;;;;;;;3.53;3.00;;;0.10;99.90;;;;;;4853930;28;20849;-73
2021/01/14 06:51:53;;;;;;;4.18;2.97;;;0.10;99.90;;;;;;4854706;28;20539;-72
2021/01/14 06:54:20;;;;;;;4.03;3.25;;;0.10;99.90;;;;;;4854097;28;20496;-73
2021/01/14 06:57:07;;;;;;;4.43;3.60;;;0.10;99.90;;;;;;4837927;28;20424;-73
2021/01/14 06:59:35;;;;;;;3.72;3.25;;;0.10;99.90;;;;;;4949333;28;20403;-72
2021/01/14 07:02:20;;;;;;;3.45;3.15;;;0.10;99.90;;;;;;4842731;28;20811;-73
2021/01/14 07:04:51;;;;;;;4.00;3.60;;;0.10;99.90;;;;;;4849192;28;20409;-75
2021/01/14 07:07:25;;;;;;;4.30;3.85;;;0.10;99.90;;;;;;4854867;29;20409;-73
2021/01/14 07:10:07;;;;;;;5.07;3.80;;;0.20;99.90;;;;;;4907736;28;20404;-73
2021/01/14 07:12:34;;;;;;;4.25;3.85;;;0.20;99.90;;;;;;4844658;28;20499;-73
2021/01/14 07:15:11;;;;;;;3.90;3.50;;;0.20;99.90;;;;;;4850733;29;20400;-73
2021/01/14 07:17:39;;;;;;;4.27;3.83;;;0.20;99.90;;;;;;4823191;28;22928;-73
2021/01/14 07:20:15;;;;;;;4.47;4.05;;;0.30;99.90;;;;;;4889685;28;20412;-73
2021/01/14 07:22:52;;;;;;;4.97;4.40;;;0.20;99.90;;;;;;4972374;28;21144;-74
2021/01/14 07:25:18;;;;;;;5.50;4.33;;;0.30;99.90;;;;;;4933225;28;20451;-76
2021/01/14 07:27:44;;;;;;;5.87;4.43;;;0.30;99.90;;;;;;4923104;28;20486;-73
2021/01/14 07:30:10;;;;;;;5.70;4.30;;;0.30;99.90;;;;;;4917981;28;20431;-73
2021/01/14 07:32:53;;;;;;;5.18;4.22;;;0.30;99.90;;;;;;4865839;28;20406;-71
2021/01/14 07:35:37;;;;;;;4.70;4.10;;;0.30;99.90;;;;;;4943197;28;20483;-72
2021/01/14 07:38:16;;;;;;;4.30;3.90;;;0.40;99.90;;;;;;4958049;28;20416;-74
2021/01/14 07:40:42;;;;;;;5.18;4.53;;;0.40;99.90;;;;;;4927043;28;20520;-73
2021/01/14 07:43:14;;;;;;;4.57;4.00;;;0.50;99.90;;;;;;4917262;28;20487;-74
2021/01/14 07:45:40;;;;;;;4.82;4.25;;;0.50;99.90;;;;;;4898559;28;20404;-75
2021/01/14 07:48:18;;;;;;;5.63;4.13;;;0.50;99.90;;;;;;4873120;28;20469;-74
2021/01/14 07:50:57;;;;;;;4.35;3.95;;;0.50;99.90;;;;;;4939345;28;20451;-73
2021/01/14 07:53:24;;;;;;;5.22;4.35;;;0.50;99.90;;;;;;4934356;28;20420;-76
2021/01/14 07:55:49;;;;;;;4.95;4.45;;;0.60;99.90;;;;;;4915365;28;20400;-73
2021/01/14 07:58:21;;;;;;;5.30;4.53;;;0.60;99.90;;;;;;4832569;28;20427;-74
2021/01/14 08:01:03;;;;;;;5.32;4.65;;;0.60;99.90;;;;;;4854903;28;20408;-74
2021/01/14 08:03:32;;;;;;;5.00;4.22;;;0.60;99.90;;;;;;4837349;29;20397;-75
2021/01/14 08:05:58;;;;;;;5.25;4.68;;;0.70;99.90;;;;;;4918490;28;20472;-75
2021/01/14 08:08:35;;;;;;;5.20;4.70;;;0.70;99.90;;;;;;4837389;28;20436;-74
2021/01/14 08:11:11;;;;;;;6.65;5.13;;;0.70;99.90;;;;;;4899491;29;20431;-74
2021/01/14 08:14:02;;;;;;;4.75;4.32;;;0.80;99.90;;;;;;4850679;28;20419;-78
2021/01/14 08:16:39;;;;;;;5.03;4.40;;;0.80;99.90;;;;;;4906136;28;20392;-75
2021/01/14 08:19:15;;;;;;;5.05;4.47;;;0.80;99.90;;;;;;4825204;28;20458;-74
2021/01/14 08:21:42;;;;;;;5.30;4.80;;;0.90;99.90;;;;;;4868627;28;20448;-74
2021/01/14 08:24:09;;;;;;;5.90;4.70;;;0.90;99.90;;;;;;4840269;28;20404;-76
2021/01/14 08:26:53;;;;;;;6.00;5.17;;;0.90;99.90;;;;;;4839247;29;20420;-74
2021/01/14 08:29:40;;;;;;;5.90;4.78;;;1.00;99.90;;;;;;4918843;28;20907;-73
2021/01/14 08:32:27;;;;;;;5.47;4.00;;;1.00;99.90;;;;;;4843789;28;20874;-74
2021/01/14 08:34:53;;;;;;;5.18;4.28;;;0.90;99.90;;;;;;4857838;28;20412;-76
2021/01/14 08:37:43;;;;;;;5.57;4.90;;;1.00;99.90;;;;;;4897144;28;20478;-79
2021/01/14 08:40:22;;;;;;;5.68;4.85;;;1.00;99.90;;;;;;4957252;28;20543;-74
2021/01/14 08:43:08;;;;;;;6.78;5.20;;;1.00;99.90;;;;;;4907514;28;20928;-75
2021/01/14 08:45:34;;;;;;;5.57;4.97;;;1.00;99.90;;;;;;4840083;28;20447;-74
2021/01/14 08:48:04;;;;;;;6.18;5.30;;;1.00;99.90;;;;;;4840027;28;20401;-74
2021/01/14 08:50:40;;;;;;;6.97;5.15;;;1.00;99.90;;;;;;4855465;28;20424;-74
2021/01/14 08:53:35;;;;;;;6.22;5.43;;;1.10;99.90;;;;;;4843266;28;20420;-76
2021/01/14 08:56:04;;;;;;;6.75;5.57;;;1.10;99.90;;;;;;4970262;28;20483;-74
2021/01/14 08:58:33;;;;;;;7.40;5.65;;;1.10;99.90;;;;;;4960901;28;21011;-75
2021/01/14 09:00:59;;;;;;;7.43;5.43;;;1.10;99.90;;;;;;4909396;28;20407;-75
2021/01/14 09:03:27;;;;;;;5.90;5.10;;;1.10;99.90;;;;;;4838753;28;20428;-77
2021/01/14 09:05:54;;;;;;;6.30;5.40;;;1.10;99.90;;;;;;4852978;28;20413;-74
2021/01/14 09:08:20;;;;;;;5.80;5.05;;;1.10;99.90;;;;;;4850825;29;20881;-74
2021/01/14 09:10:49;;;;;;;6.57;4.93;;;1.10;99.90;;;;;;4838146;28;20448;-75
2021/01/14 09:13:16;;;;;;;6.25;5.15;;;1.00;99.90;;;;;;4849411;29;20413;-75
2021/01/14 09:15:42;;;;;;;6.28;5.38;;;1.00;99.90;;;;;;4887010;28;20428;-75
2021/01/14 09:18:08;;;;;;;6.15;4.97;;;1.10;99.90;;;;;;4837411;29;20426;-74
2021/01/14 09:20:34;;;;;;;7.18;5.22;;;1.20;99.90;;;;;;4844920;29;20409;-74
2021/01/14 09:23:19;;;;;;;5.43;4.88;;;1.10;99.90;;;;;;4872887;28;20416;-75
2021/01/14 09:25:46;;;;;;;5.68;5.10;;;1.10;99.90;;;;;;4856079;28;20408;-74
2021/01/14 09:28:12;;;;;;;6.90;5.35;;;1.10;99.90;;;;;;4886380;28;20498;-77
2021/01/14 09:30:38;;;;;;;6.68;5.07;;;1.10;99.90;;;;;;4854901;28;20838;-76
2021/01/14 09:33:05;;;;;;;6.80;5.68;;;1.20;99.90;;;;;;4867084;28;20415;-74
2021/01/14 09:35:30;;;;;;;7.57;6.00;;;1.20;99.90;;;;;;4940143;28;20420;-73
2021/01/14 09:37:56;;;;;;;6.33;4.90;;;1.40;99.90;;;;;;4954355;28;20392;-74
2021/01/14 09:40:22;;;;;;;8.40;5.53;;;1.50;99.90;;;;;;4950275;28;20402;-74
2021/01/14 09:42:51;;;;;;;6.15;5.32;;;1.60;99.90;;;;;;4947981;28;20436;-74
2021/01/14 09:45:17;;;;;;;5.83;5.03;;;1.70;99.90;;;;;;4937217;28;20407;-73
2021/01/14 09:47:49;;;;;;;5.88;5.28;;;1.70;99.90;;;;;;4869884;28;20420;-77
2021/01/14 09:50:15;;;;;;;7.03;5.25;;;1.60;99.90;;;;;;4845974;28;20486;-73
2021/01/14 09:52:42;;;;;;;8.07;5.90;;;1.60;99.90;;;;;;4848729;28;20428;-73
2021/01/14 09:55:09;;;;;;;7.83;5.37;;;1.70;99.90;;;;;;4851536;28;20427;-75
2021/01/14 09:57:35;;;;;;;5.75;5.15;;;1.60;99.90;;;;;;4862396;28;20441;-73
2021/01/14 10:00:00;;;;;;;5.38;4.72;;;1.50;99.90;;;;;;4851307;29;20776;-74
2021/01/14 10:02:29;;;;;;;6.37;4.93;;;1.40;99.90;;;;;;4825486;28;20424;-81
2021/01/14 10:04:59;;;;;;;7.28;5.65;;;1.40;99.90;;;;;;4906803;28;20530;-77
2021/01/14 10:07:25;;;;;;;5.40;4.82;;;1.30;99.90;;;;;;4932968;28;20473;-74
2021/01/14 10:09:54;;;;;;;6.30;4.93;;;1.30;99.90;;;;;;4811345;29;1239745;-74
2021/01/14 10:12:19;;;;;;;4.97;4.47;;;1.40;99.90;;;;;;4838239;28;20512;-77
2021/01/14 10:14:45;;;;;;;6.27;5.10;;;1.30;99.90;;;;;;4839422;28;20434;-73
2021/01/14 10:17:12;;;;;;;6.22;5.30;;;1.30;99.90;;;;;;4854027;28;20409;-74
2021/01/14 10:19:40;;;;;;;5.55;4.72;;;1.30;99.90;;;;;;4857453;28;20413;-73
2021/01/14 10:22:06;;;;;;;5.28;4.78;;;1.40;99.90;;;;;;4838226;28;20403;-73
2021/01/14 10:24:32;;;;;;;6.05;4.97;;;1.40;99.90;;;;;;4857535;28;20731;-73
2021/01/14 10:27:18;;;;;;;6.63;5.47;;;1.50;99.90;;;;;;4855322;29;20419;-73
2021/01/14 10:29:44;;;;;;;6.13;4.97;;;1.40;99.90;;;;;;4951149;28;20924;-73
2021/01/14 10:32:11;;;;;;;6.80;5.30;;;1.40;99.90;;;;;;4851539;28;20467;-74
2021/01/14 10:34:43;;;;;;;5.87;5.23;;;1.50;99.90;;;;;;4870265;28;20487;-73
2021/01/14 10:37:27;;;;;;;5.80;5.20;;;1.40;99.90;;;;;;4934429;28;20415;-73
2021/01/14 10:39:57;;;;;;;6.47;4.90;;;1.40;99.90;;;;;;4871061;28;20407;-73
2021/01/14 10:42:35;;;;;;;6.47;5.10;;;1.50;99.90;;;;;;4854268;29;20405;-73
2021/01/14 10:45:07;;;;;;;7.03;5.85;;;1.50;99.90;;;;;;4951244;28;20407;-74
2021/01/14 10:47:33;;;;;;;6.95;5.45;;;1.40;99.90;;;;;;4840167;28;20412;-75
2021/01/14 10:49:58;;;;;;;8.02;6.00;;;1.40;99.90;;;;;;4852710;28;20754;-76
2021/01/14 10:52:24;;;;;;;5.80;5.20;;;1.60;99.90;;;;;;4861941;29;20416;-76
2021/01/14 10:54:56;;;;;;;5.80;5.10;;;1.40;99.90;;;;;;4841489;29;20409;-75
2021/01/14 10:57:22;;;;;;;6.40;4.83;;;1.50;99.90;;;;;;4841578;28;20412;-73
2021/01/14 10:59:48;;;;;;;7.57;5.57;;;1.70;99.90;;;;;;4838873;28;20419;-75
2021/01/14 11:02:13;;;;;;;7.07;5.60;;;1.60;99.90;;;;;;4859139;28;20503;-78
2021/01/14 11:04:54;;;;;;;8.33;5.73;;;1.50;99.90;;;;;;4854486;29;20414;-74
2021/01/14 11:07:20;;;;;;;7.60;5.68;;;1.80;99.90;;;;;;4839626;28;20917;-73
2021/01/14 11:09:52;;;;;;;5.90;4.63;;;2.10;99.90;;;;;;4857071;28;20407;-74
2021/01/14 11:12:18;;;;;;;5.32;4.72;;;2.10;99.90;;;;;;4842551;28;20409;-74
2021/01/14 11:14:44;;;;;;;7.00;4.68;;;1.90;99.90;;;;;;4862940;28;20448;-74
2021/01/14 11:17:13;;;;;;;5.53;4.93;;;1.90;99.90;;;;;;4842517;29;20446;-74
2021/01/14 11:19:38;;;;;;;7.05;4.72;;;1.90;99.90;;;;;;4929508;28;20400;-72
2021/01/14 11:22:04;;;;;;;7.53;4.50;;;1.90;99.90;;;;;;4855007;28;20460;-75
2021/01/14 11:24:30;;;;;;;5.33;4.30;;;1.80;99.90;;;;;;4853827;28;20477;-74
2021/01/14 11:26:55;;;;;;;5.68;4.70;;;1.80;99.90;;;;;;4946876;28;20394;-76
2021/01/14 11:29:21;;;;;;;8.57;4.67;;;1.70;99.90;;;;;;4947014;28;20548;-75
2021/01/14 11:31:47;;;;;;;4.63;4.20;;;1.80;99.90;;;;;;4877017;28;20417;-75
2021/01/14 11:34:12;;;;;;;6.88;4.80;;;2.10;99.90;;;;;;4903042;28;20587;-74
2021/01/14 11:36:38;;;;;;;4.93;4.00;;;2.10;99.90;;;;;;4899305;28;20396;-74
2021/01/14 11:39:04;;;;;;;5.70;4.20;;;2.10;99.90;;;;;;4830033;29;20479;-75
2021/01/14 11:41:29;;;;;;;6.07;4.25;;;1.90;99.90;;;;;;4877564;28;20409;-75
2021/01/14 11:43:55;;;;;;;6.55;4.38;;;1.80;99.90;;;;;;4842495;29;20406;-75
2021/01/14 11:46:24;;;;;;;5.93;4.37;;;1.80;99.90;;;;;;4859286;28;20423;-76
2021/01/14 11:48:50;;;;;;;4.70;4.20;;;1.80;99.90;;;;;;4844502;29;20427;-75
2021/01/14 11:51:16;;;;;;;4.68;4.07;;;1.80;99.90;;;;;;4863097;29;20418;-76
2021/01/14 11:53:42;;;;;;;6.05;3.88;;;1.80;99.90;;;;;;4963763;28;20771;-75
2021/01/14 11:56:07;;;;;;;5.53;4.00;;;1.80;99.90;;;;;;4936348;28;20400;-76
2021/01/14 11:58:34;;;;;;;5.40;4.13;;;1.80;99.90;;;;;;4954675;28;20566;-76
2021/01/14 12:01:00;;;;;;;4.80;4.00;;;1.80;99.90;;;;;;4920505;28;20899;-75
2021/01/14 12:03:26;;;;;;;5.67;3.93;;;1.80;99.90;;;;;;4821701;28;20416;-75
2021/01/14 12:05:52;;;;;;;5.10;4.03;;;1.90;99.90;;;;;;4876645;28;20408;-75
2021/01/14 12:08:17;;;;;;;4.95;3.78;;;1.90;99.90;;;;;;4830057;29;20425;-76
2021/01/14 12:10:43;;;;;;;4.93;3.40;;;1.80;99.90;;;;;;4850396;29;20417;-75
2021/01/14 12:13:09;;;;;;;3.80;3.20;;;1.80;99.90;;;;;;4836285;29;20413;-75
2021/01/14 12:15:34;;;;;;;4.20;3.40;;;1.70;99.90;;;;;;4857834;29;20440;-78
2021/01/14 12:18:00;;;;;;;4.90;3.53;;;1.70;99.90;;;;;;4950227;28;20473;-78
2021/01/14 12:20:25;;;;;;;4.32;3.53;;;1.70;99.90;;;;;;4963074;28;20427;-78
2021/01/14 12:22:51;;;;;;;5.97;3.90;;;1.80;99.90;;;;;;4939597;28;20399;-76
2021/01/14 12:25:17;;;;;;;4.13;3.73;;;1.80;99.90;;;;;;4943963;28;20487;-76
2021/01/14 12:27:43;;;;;;;5.97;3.47;;;1.80;99.90;;;;;;4916005;28;20918;-76
2021/01/14 12:30:09;;;;;;;5.18;3.60;;;1.70;99.90;;;;;;4854779;28;21077;-76
2021/01/14 12:32:35;;;;;;;3.80;3.10;;;1.80;99.90;;;;;;4889256;28;20410;-76
2021/01/14 12:35:01;;;;;;;4.70;3.53;;;1.80;99.90;;;;;;4939594;28;20416;-75
2021/01/14 12:37:37;;;;;;;5.80;3.42;;;1.70;99.90;;;;;;4935094;29;20409;-80
2021/01/14 12:40:04;;;;;;;4.32;3.67;;;1.80;99.90;;;;;;4937765;28;20499;-76
2021/01/14 12:42:30;;;;;;;3.92;3.45;;;1.80;99.90;;;;;;4943173;28;20396;-80
2021/01/14 12:44:55;;;;;;;5.43;3.30;;;1.90;99.90;;;;;;4937808;29;20408;-77
2021/01/14 12:47:21;;;;;;;4.50;3.58;;;1.90;99.90;;;;;;4909593;28;20441;-77
2021/01/14 12:49:47;;;;;;;3.55;3.25;;;1.90;99.90;;;;;;4845258;29;20827;-75
2021/01/14 12:52:12;;;;;;;4.73;3.57;;;1.90;99.90;;;;;;4904141;28;20388;-77
2021/01/14 12:54:38;;;;;;;3.40;3.10;;;1.80;99.90;;;;;;4941599;28;20450;-78
2021/01/14 12:57:04;;;;;;;3.85;3.30;;;1.70;99.90;;;;;;4908193;28;20404;-77
2021/01/14 12:59:29;;;;;;;3.95;3.20;;;1.80;99.90;;;;;;4927486;28;20536;-78